Bathurst Island Cape Fourcroy, Australia
Current Conditions -  °F | °C
As of 5:00 PM on Friday 31 Oct 2014 (Local Time) from YPDN Reporting Station
Clear Clear  
Wind Chill: 88°   Ceiling: Unl
Heat Index: 91°   Visibility: 6mi
Dew Point: 68°   Wind: 15mph
Humidity: 52%   Direction: 310°NW
Pressure: 29.74"   Gusts: NA
Location:  11.78°S, 130.02°E
Report Text: YPDN 310800Z 31013KT CAVOK 31/20 Q1007
Loading
Personal Weather Stations






























Interactive Weather Map
Tropical Storm Tracking
New forecast layout! Learn more

10-Day Weather Forecast

Advertisements
Track Severe Weather on mobile